sensor_id;sensor_type;location;lat;lon;timestamp;temperature;humidity
14733;DHT22;7457;50.960;6.830;2024-03-23T00:54:46;7.30;100.00
14733;DHT22;7457;50.960;6.830;2024-03-23T00:57:12;7.30;100.00
14733;DHT22;7457;50.960;6.830;2024-03-23T00:59:37;7.30;100.00
14733;DHT22;7457;50.960;6.830;2024-03-23T01:02:03;7.30;100.00
14733;DHT22;7457;50.960;6.830;2024-03-23T01:04:29;7.30;100.00
14733;DHT22;7457;50.960;6.830;2024-03-23T01:06:55;7.30;100.00
14733;DHT22;7457;50.960;6.830;2024-03-23T01:09:20;7.20;100.00
14733;DHT22;7457;50.960;6.830;2024-03-23T01:11:46;7.20;100.00
14733;DHT22;7457;50.960;6.830;2024-03-23T01:14:12;7.10;100.00
14733;DHT22;7457;50.960;6.830;2024-03-23T01:16:37;7.10;100.00
14733;DHT22;7457;50.960;6.830;2024-03-23T01:19:03;7.10;100.00
14733;DHT22;7457;50.960;6.830;2024-03-23T01:21:29;7.00;100.00
14733;DHT22;7457;50.960;6.830;2024-03-23T01:23:55;7.00;100.00
14733;DHT22;7457;50.960;6.830;2024-03-23T01:26:20;6.90;100.00
14733;DHT22;7457;50.960;6.830;2024-03-23T01:28:46;6.90;100.00
14733;DHT22;7457;50.960;6.830;2024-03-23T01:31:12;6.90;100.00
14733;DHT22;7457;50.960;6.830;2024-03-23T01:33:38;6.90;100.00
14733;DHT22;7457;50.960;6.830;2024-03-23T01:36:04;6.90;100.00
14733;DHT22;7457;50.960;6.830;2024-03-23T01:38:30;6.90;100.00
14733;DHT22;7457;50.960;6.830;2024-03-23T01:40:58;6.90;100.00
14733;DHT22;7457;50.960;6.830;2024-03-23T01:43:24;6.90;100.00
14733;DHT22;7457;50.960;6.830;2024-03-23T01:45:50;6.90;100.00
14733;DHT22;7457;50.960;6.830;2024-03-23T01:48:20;6.90;100.00
14733;DHT22;7457;50.960;6.830;2024-03-23T01:50:46;6.90;100.00
14733;DHT22;7457;50.960;6.830;2024-03-23T01:53:12;6.90;100.00
14733;DHT22;7457;50.960;6.830;2024-03-23T01:55:39;6.90;100.00
14733;DHT22;7457;50.960;6.830;2024-03-23T01:58:06;6.90;100.00
14733;DHT22;7457;50.960;6.830;2024-03-23T02:00:32;6.90;100.00
14733;DHT22;7457;50.960;6.830;2024-03-23T02:02:58;6.90;100.00
14733;DHT22;7457;50.960;6.830;2024-03-23T02:05:23;6.80;100.00
14733;DHT22;7457;50.960;6.830;2024-03-23T02:07:50;6.70;100.00
14733;DHT22;7457;50.960;6.830;2024-03-23T02:10:16;6.70;100.00
14733;DHT22;7457;50.960;6.830;2024-03-23T02:12:43;6.60;100.00
14733;DHT22;7457;50.960;6.830;2024-03-23T02:15:08;6.60;100.00
14733;DHT22;7457;50.960;6.830;2024-03-23T02:17:35;6.50;100.00
14733;DHT22;7457;50.960;6.830;2024-03-23T02:20:02;6.40;100.00
14733;DHT22;7457;50.960;6.830;2024-03-23T02:22:38;6.20;100.00
14733;DHT22;7457;50.960;6.830;2024-03-23T02:25:05;6.10;100.00
14733;DHT22;7457;50.960;6.830;2024-03-23T02:27:31;5.90;100.00
14733;DHT22;7457;50.960;6.830;2024-03-23T02:29:57;5.90;100.00
14733;DHT22;7457;50.960;6.830;2024-03-23T02:32:23;5.80;100.00
14733;DHT22;7457;50.960;6.830;2024-03-23T02:34:48;5.70;100.00
14733;DHT22;7457;50.960;6.830;2024-03-23T02:37:14;5.70;100.00
14733;DHT22;7457;50.960;6.830;2024-03-23T02:39:40;5.70;100.00
14733;DHT22;7457;50.960;6.830;2024-03-23T02:42:05;5.70;100.00
14733;DHT22;7457;50.960;6.830;2024-03-23T02:44:31;5.70;100.00
14733;DHT22;7457;50.960;6.830;2024-03-23T02:46:57;5.70;100.00
14733;DHT22;7457;50.960;6.830;2024-03-23T02:49:22;5.60;100.00
14733;DHT22;7457;50.960;6.830;2024-03-23T02:51:48;5.60;100.00
14733;DHT22;7457;50.960;6.830;2024-03-23T02:54:14;5.60;100.00
14733;DHT22;7457;50.960;6.830;2024-03-23T02:56:40;5.50;100.00
14733;DHT22;7457;50.960;6.830;2024-03-23T02:59:06;5.50;100.00
14733;DHT22;7457;50.960;6.830;2024-03-23T03:01:32;5.50;100.00
14733;DHT22;7457;50.960;6.830;2024-03-23T03:03:57;5.50;100.00
14733;DHT22;7457;50.960;6.830;2024-03-23T03:06:24;5.50;100.00
14733;DHT22;7457;50.960;6.830;2024-03-23T03:08:50;5.50;100.00
14733;DHT22;7457;50.960;6.830;2024-03-23T03:11:16;5.50;100.00
14733;DHT22;7457;50.960;6.830;2024-03-23T03:13:42;5.40;100.00
14733;DHT22;7457;50.960;6.830;2024-03-23T03:16:11;5.50;100.00
14733;DHT22;7457;50.960;6.830;2024-03-23T03:18:38;5.40;100.00
14733;DHT22;7457;50.960;6.830;2024-03-23T03:21:05;5.40;100.00
14733;DHT22;7457;50.960;6.830;2024-03-23T03:23:37;5.40;100.00
14733;DHT22;7457;50.960;6.830;2024-03-23T03:26:03;5.40;100.00
14733;DHT22;7457;50.960;6.830;2024-03-23T03:28:29;5.40;100.00
14733;DHT22;7457;50.960;6.830;2024-03-23T03:30:57;5.40;100.00
14733;DHT22;7457;50.960;6.830;2024-03-23T03:33:22;5.40;100.00
14733;DHT22;7457;50.960;6.830;2024-03-23T03:35:48;5.40;100.00
14733;DHT22;7457;50.960;6.830;2024-03-23T03:38:14;5.40;100.00
14733;DHT22;7457;50.960;6.830;2024-03-23T03:40:41;5.40;100.00
14733;DHT22;7457;50.960;6.830;2024-03-23T03:43:07;5.30;100.00
14733;DHT22;7457;50.960;6.830;2024-03-23T03:45:33;5.30;100.00
14733;DHT22;7457;50.960;6.830;2024-03-23T03:47:58;5.30;100.00
14733;DHT22;7457;50.960;6.830;2024-03-23T03:50:24;5.30;100.00
14733;DHT22;7457;50.960;6.830;2024-03-23T03:52:50;5.30;100.00
14733;DHT22;7457;50.960;6.830;2024-03-23T03:55:16;5.30;100.00
14733;DHT22;7457;50.960;6.830;2024-03-23T03:57:42;5.30;100.00
14733;DHT22;7457;50.960;6.830;2024-03-23T04:00:08;5.30;100.00
14733;DHT22;7457;50.960;6.830;2024-03-23T04:02:38;5.30;100.00
14733;DHT22;7457;50.960;6.830;2024-03-23T04:05:04;5.30;100.00
14733;DHT22;7457;50.960;6.830;2024-03-23T04:07:30;5.30;100.00
14733;DHT22;7457;50.960;6.830;2024-03-23T04:09:55;5.30;100.00
14733;DHT22;7457;50.960;6.830;2024-03-23T04:12:21;5.30;100.00
14733;DHT22;7457;50.960;6.830;2024-03-23T04:14:47;5.30;100.00
14733;DHT22;7457;50.960;6.830;2024-03-23T04:17:13;5.30;100.00
14733;DHT22;7457;50.960;6.830;2024-03-23T04:19:38;5.30;100.00
14733;DHT22;7457;50.960;6.830;2024-03-23T04:22:05;5.30;100.00
14733;DHT22;7457;50.960;6.830;2024-03-23T04:24:30;5.30;100.00
14733;DHT22;7457;50.960;6.830;2024-03-23T04:26:56;5.30;100.00
14733;DHT22;7457;50.960;6.830;2024-03-23T04:29:22;5.30;100.00
14733;DHT22;7457;50.960;6.830;2024-03-23T04:31:47;5.30;100.00
14733;DHT22;7457;50.960;6.830;2024-03-23T04:34:13;5.30;100.00
14733;DHT22;7457;50.960;6.830;2024-03-23T04:36:39;5.30;100.00
14733;DHT22;7457;50.960;6.830;2024-03-23T04:39:05;5.30;100.00
14733;DHT22;7457;50.960;6.830;2024-03-23T04:41:34;5.30;100.00
14733;DHT22;7457;50.960;6.830;2024-03-23T04:44:00;5.20;100.00
14733;DHT22;7457;50.960;6.830;2024-03-23T04:46:26;5.20;100.00
14733;DHT22;7457;50.960;6.830;2024-03-23T04:48:52;5.20;100.00
14733;DHT22;7457;50.960;6.830;2024-03-23T04:51:24;5.20;100.00
14733;DHT22;7457;50.960;6.830;2024-03-23T04:53:50;5.20;100.00
14733;DHT22;7457;50.960;6.830;2024-03-23T04:56:16;5.20;100.00
14733;DHT22;7457;50.960;6.830;2024-03-23T04:58:43;5.20;100.00
14733;DHT22;7457;50.960;6.830;2024-03-23T05:01:10;5.20;100.00
14733;DHT22;7457;50.960;6.830;2024-03-23T05:03:37;5.20;100.00
14733;DHT22;7457;50.960;6.830;2024-03-23T05:06:03;5.20;100.00
14733;DHT22;7457;50.960;6.830;2024-03-23T05:08:29;5.20;100.00
14733;DHT22;7457;50.960;6.830;2024-03-23T05:10:55;5.20;100.00
14733;DHT22;7457;50.960;6.830;2024-03-23T05:13:21;5.20;100.00
14733;DHT22;7457;50.960;6.830;2024-03-23T05:15:54;5.20;100.00
14733;DHT22;7457;50.960;6.830;2024-03-23T05:18:20;5.20;100.00
14733;DHT22;7457;50.960;6.830;2024-03-23T05:20:46;5.20;100.00
14733;DHT22;7457;50.960;6.830;2024-03-23T05:23:12;5.20;100.00
14733;DHT22;7457;50.960;6.830;2024-03-23T05:25:38;5.20;100.00
14733;DHT22;7457;50.960;6.830;2024-03-23T05:28:04;5.20;100.00
14733;DHT22;7457;50.960;6.830;2024-03-23T05:30:29;5.20;100.00
14733;DHT22;7457;50.960;6.830;2024-03-23T05:32:55;5.20;100.00
14733;DHT22;7457;50.960;6.830;2024-03-23T05:35:21;5.10;100.00
14733;DHT22;7457;50.960;6.830;2024-03-23T05:37:46;5.20;100.00
14733;DHT22;7457;50.960;6.830;2024-03-23T05:40:12;5.20;100.00
14733;DHT22;7457;50.960;6.830;2024-03-23T05:42:41;5.20;100.00
14733;DHT22;7457;50.960;6.830;2024-03-23T05:45:07;5.20;100.00
14733;DHT22;7457;50.960;6.830;2024-03-23T05:47:33;5.20;100.00
14733;DHT22;7457;50.960;6.830;2024-03-23T05:49:59;5.20;100.00
14733;DHT22;7457;50.960;6.830;2024-03-23T05:52:25;5.20;100.00
14733;DHT22;7457;50.960;6.830;2024-03-23T05:54:51;5.10;100.00
14733;DHT22;7457;50.960;6.830;2024-03-23T05:57:17;5.10;100.00
14733;DHT22;7457;50.960;6.830;2024-03-23T05:59:44;5.10;100.00
14733;DHT22;7457;50.960;6.830;2024-03-23T06:02:10;5.10;100.00
14733;DHT22;7457;50.960;6.830;2024-03-23T06:04:36;5.10;100.00
14733;DHT22;7457;50.960;6.830;2024-03-23T06:07:03;5.10;100.00
14733;DHT22;7457;50.960;6.830;2024-03-23T06:09:28;5.00;100.00
14733;DHT22;7457;50.960;6.830;2024-03-23T06:11:56;5.00;100.00
14733;DHT22;7457;50.960;6.830;2024-03-23T06:14:22;5.00;100.00
14733;DHT22;7457;50.960;6.830;2024-03-23T06:16:48;5.00;100.00
14733;DHT22;7457;50.960;6.830;2024-03-23T06:19:14;5.00;100.00
14733;DHT22;7457;50.960;6.830;2024-03-23T06:21:43;5.00;100.00
14733;DHT22;7457;50.960;6.830;2024-03-23T06:24:13;5.00;100.00
14733;DHT22;7457;50.960;6.830;2024-03-23T06:26:39;5.00;100.00
14733;DHT22;7457;50.960;6.830;2024-03-23T06:29:04;5.00;100.00
14733;DHT22;7457;50.960;6.830;2024-03-23T06:31:31;5.20;100.00
14733;DHT22;7457;50.960;6.830;2024-03-23T06:33:56;5.70;100.00
14733;DHT22;7457;50.960;6.830;2024-03-23T06:36:22;6.20;100.00
14733;DHT22;7457;50.960;6.830;2024-03-23T06:38:48;6.70;100.00
14733;DHT22;7457;50.960;6.830;2024-03-23T06:41:14;7.10;100.00
14733;DHT22;7457;50.960;6.830;2024-03-23T06:43:39;7.40;100.00
14733;DHT22;7457;50.960;6.830;2024-03-23T06:46:05;7.60;100.00
14733;DHT22;7457;50.960;6.830;2024-03-23T06:48:31;7.80;100.00
14733;DHT22;7457;50.960;6.830;2024-03-23T06:50:57;8.00;100.00
14733;DHT22;7457;50.960;6.830;2024-03-23T06:53:23;8.10;100.00
14733;DHT22;7457;50.960;6.830;2024-03-23T06:55:52;8.20;100.00
14733;DHT22;7457;50.960;6.830;2024-03-23T06:58:23;8.10;100.00
14733;DHT22;7457;50.960;6.830;2024-03-23T07:00:49;8.00;100.00
14733;DHT22;7457;50.960;6.830;2024-03-23T07:03:16;8.00;100.00
14733;DHT22;7457;50.960;6.830;2024-03-23T07:05:42;8.00;100.00
14733;DHT22;7457;50.960;6.830;2024-03-23T07:08:08;8.00;100.00
14733;DHT22;7457;50.960;6.830;2024-03-23T07:10:34;8.00;100.00
14733;DHT22;7457;50.960;6.830;2024-03-23T07:12:59;7.90;100.00
14733;DHT22;7457;50.960;6.830;2024-03-23T07:15:25;8.00;100.00
14733;DHT22;7457;50.960;6.830;2024-03-23T07:17:51;8.10;100.00
14733;DHT22;7457;50.960;6.830;2024-03-23T07:20:17;8.20;100.00
14733;DHT22;7457;50.960;6.830;2024-03-23T07:22:45;8.30;100.00
14733;DHT22;7457;50.960;6.830;2024-03-23T07:25:10;8.40;100.00
14733;DHT22;7457;50.960;6.830;2024-03-23T07:27:36;8.60;100.00
14733;DHT22;7457;50.960;6.830;2024-03-23T07:30:02;8.90;100.00
14733;DHT22;7457;50.960;6.830;2024-03-23T07:32:28;9.40;100.00
14733;DHT22;7457;50.960;6.830;2024-03-23T07:34:54;9.90;100.00
14733;DHT22;7457;50.960;6.830;2024-03-23T07:37:19;10.10;100.00
14733;DHT22;7457;50.960;6.830;2024-03-23T07:39:45;10.30;100.00
14733;DHT22;7457;50.960;6.830;2024-03-23T07:42:11;10.50;100.00
14733;DHT22;7457;50.960;6.830;2024-03-23T07:44:36;10.60;100.00
14733;DHT22;7457;50.960;6.830;2024-03-23T07:47:03;10.90;100.00
14733;DHT22;7457;50.960;6.830;2024-03-23T07:49:29;11.00;100.00
14733;DHT22;7457;50.960;6.830;2024-03-23T07:51:55;11.00;100.00
14733;DHT22;7457;50.960;6.830;2024-03-23T07:54:21;11.00;100.00
14733;DHT22;7457;50.960;6.830;2024-03-23T07:56:46;11.20;100.00
14733;DHT22;7457;50.960;6.830;2024-03-23T07:59:12;11.50;100.00
14733;DHT22;7457;50.960;6.830;2024-03-23T08:01:38;12.00;100.00
14733;DHT22;7457;50.960;6.830;2024-03-23T08:04:04;12.30;100.00
14733;DHT22;7457;50.960;6.830;2024-03-23T08:06:29;12.60;100.00
14733;DHT22;7457;50.960;6.830;2024-03-23T08:08:56;12.90;98.40
14733;DHT22;7457;50.960;6.830;2024-03-23T08:11:29;13.20;97.50
14733;DHT22;7457;50.960;6.830;2024-03-23T08:13:55;13.50;96.10
14733;DHT22;7457;50.960;6.830;2024-03-23T08:16:22;13.80;95.70
14733;DHT22;7457;50.960;6.830;2024-03-23T08:18:48;14.10;94.90
14733;DHT22;7457;50.960;6.830;2024-03-23T08:21:14;14.50;93.30
14733;DHT22;7457;50.960;6.830;2024-03-23T08:23:40;14.60;88.10
14733;DHT22;7457;50.960;6.830;2024-03-23T08:26:07;14.80;88.30
14733;DHT22;7457;50.960;6.830;2024-03-23T08:28:34;14.80;84.90
14733;DHT22;7457;50.960;6.830;2024-03-23T08:31:04;14.70;82.70
14733;DHT22;7457;50.960;6.830;2024-03-23T08:33:31;14.50;79.80
14733;DHT22;7457;50.960;6.830;2024-03-23T08:35:58;13.70;80.70
14733;DHT22;7457;50.960;6.830;2024-03-23T08:38:25;13.20;82.00
14733;DHT22;7457;50.960;6.830;2024-03-23T08:41:05;13.00;83.60
14733;DHT22;7457;50.960;6.830;2024-03-23T08:43:35;12.90;84.00
14733;DHT22;7457;50.960;6.830;2024-03-23T08:46:04;12.80;85.00
14733;DHT22;7457;50.960;6.830;2024-03-23T08:48:31;13.00;86.50
14733;DHT22;7457;50.960;6.830;2024-03-23T08:51:04;13.20;86.30
14733;DHT22;7457;50.960;6.830;2024-03-23T08:53:30;13.40;84.20
14733;DHT22;7457;50.960;6.830;2024-03-23T08:55:57;13.20;84.20
14733;DHT22;7457;50.960;6.830;2024-03-23T09:00:52;12.20;84.10
14733;DHT22;7457;50.960;6.830;2024-03-23T09:03:18;11.60;88.10
14733;DHT22;7457;50.960;6.830;2024-03-23T09:05:44;11.20;90.10
14733;DHT22;7457;50.960;6.830;2024-03-23T09:08:10;11.00;89.90
14733;DHT22;7457;50.960;6.830;2024-03-23T09:10:39;10.80;89.20
14733;DHT22;7457;50.960;6.830;2024-03-23T09:13:06;10.50;89.70
14733;DHT22;7457;50.960;6.830;2024-03-23T09:15:36;10.20;90.50
14733;DHT22;7457;50.960;6.830;2024-03-23T09:18:03;9.80;91.90
14733;DHT22;7457;50.960;6.830;2024-03-23T09:20:32;9.60;92.90
14733;DHT22;7457;50.960;6.830;2024-03-23T09:22:57;9.40;95.10
14733;DHT22;7457;50.960;6.830;2024-03-23T09:25:23;9.50;97.40
14733;DHT22;7457;50.960;6.830;2024-03-23T09:27:50;9.80;97.70
14733;DHT22;7457;50.960;6.830;2024-03-23T09:30:16;10.20;96.10
14733;DHT22;7457;50.960;6.830;2024-03-23T09:32:43;10.50;96.50
14733;DHT22;7457;50.960;6.830;2024-03-23T09:35:10;10.80;94.30
14733;DHT22;7457;50.960;6.830;2024-03-23T09:37:36;11.00;92.20
14733;DHT22;7457;50.960;6.830;2024-03-23T09:40:02;11.30;90.30
14733;DHT22;7457;50.960;6.830;2024-03-23T09:42:29;11.50;90.70
14733;DHT22;7457;50.960;6.830;2024-03-23T09:44:57;11.70;88.60
14733;DHT22;7457;50.960;6.830;2024-03-23T09:47:24;11.80;90.80
14733;DHT22;7457;50.960;6.830;2024-03-23T09:49:50;11.90;89.90
14733;DHT22;7457;50.960;6.830;2024-03-23T09:52:16;12.20;87.90
14733;DHT22;7457;50.960;6.830;2024-03-23T09:54:42;12.40;86.90
14733;DHT22;7457;50.960;6.830;2024-03-23T09:57:08;12.30;83.10
14733;DHT22;7457;50.960;6.830;2024-03-23T09:59:34;12.00;80.30
14733;DHT22;7457;50.960;6.830;2024-03-23T10:02:01;11.70;82.50
14733;DHT22;7457;50.960;6.830;2024-03-23T10:04:41;11.50;82.00
14733;DHT22;7457;50.960;6.830;2024-03-23T10:07:14;11.60;84.50
14733;DHT22;7457;50.960;6.830;2024-03-23T10:09:40;11.90;85.10
14733;DHT22;7457;50.960;6.830;2024-03-23T10:12:13;12.60;85.50
14733;DHT22;7457;50.960;6.830;2024-03-23T10:14:40;13.40;83.20
14733;DHT22;7457;50.960;6.830;2024-03-23T10:17:15;13.50;83.30
14733;DHT22;7457;50.960;6.830;2024-03-23T10:19:47;13.40;77.10
14733;DHT22;7457;50.960;6.830;2024-03-23T10:22:22;12.90;78.30
14733;DHT22;7457;50.960;6.830;2024-03-23T10:24:48;12.50;77.20
14733;DHT22;7457;50.960;6.830;2024-03-23T10:27:21;12.00;77.00
14733;DHT22;7457;50.960;6.830;2024-03-23T10:29:50;11.50;78.50
14733;DHT22;7457;50.960;6.830;2024-03-23T10:32:17;10.90;78.60
14733;DHT22;7457;50.960;6.830;2024-03-23T10:34:44;10.40;80.10
14733;DHT22;7457;50.960;6.830;2024-03-23T10:37:10;10.00;82.10
14733;DHT22;7457;50.960;6.830;2024-03-23T10:39:41;9.70;84.60
14733;DHT22;7457;50.960;6.830;2024-03-23T10:42:08;9.60;86.50
14733;DHT22;7457;50.960;6.830;2024-03-23T10:44:34;9.50;88.10
14733;DHT22;7457;50.960;6.830;2024-03-23T10:47:01;9.60;91.90
14733;DHT22;7457;50.960;6.830;2024-03-23T10:49:29;10.10;91.80
14733;DHT22;7457;50.960;6.830;2024-03-23T10:51:57;10.60;89.90
14733;DHT22;7457;50.960;6.830;2024-03-23T10:54:25;10.70;86.50
14733;DHT22;7457;50.960;6.830;2024-03-23T10:56:56;10.70;83.80
14733;DHT22;7457;50.960;6.830;2024-03-23T10:59:24;10.30;83.70
14733;DHT22;7457;50.960;6.830;2024-03-23T11:01:56;10.00;85.20
14733;DHT22;7457;50.960;6.830;2024-03-23T11:04:33;10.10;90.90
14733;DHT22;7457;50.960;6.830;2024-03-23T11:06:59;10.90;93.00
14733;DHT22;7457;50.960;6.830;2024-03-23T11:15:05;14.00;86.50
14733;DHT22;7457;50.960;6.830;2024-03-23T11:17:31;14.30;80.40
14733;DHT22;7457;50.960;6.830;2024-03-23T11:22:46;12.10;76.00
14733;DHT22;7457;50.960;6.830;2024-03-23T11:27:38;10.30;79.10
14733;DHT22;7457;50.960;6.830;2024-03-23T11:30:20;9.50;80.50
14733;DHT22;7457;50.960;6.830;2024-03-23T11:32:49;9.00;84.90
14733;DHT22;7457;50.960;6.830;2024-03-23T11:35:31;9.40;89.60
14733;DHT22;7457;50.960;6.830;2024-03-23T11:38:13;10.30;90.40
14733;DHT22;7457;50.960;6.830;2024-03-23T11:40:45;10.70;86.20
14733;DHT22;7457;50.960;6.830;2024-03-23T11:43:13;10.60;85.00
14733;DHT22;7457;50.960;6.830;2024-03-23T11:45:49;10.40;86.80
14733;DHT22;7457;50.960;6.830;2024-03-23T11:48:21;10.30;86.00
14733;DHT22;7457;50.960;6.830;2024-03-23T11:50:49;10.10;86.00
14733;DHT22;7457;50.960;6.830;2024-03-23T11:53:20;9.80;86.50
14733;DHT22;7457;50.960;6.830;2024-03-23T11:58:13;9.30;88.80
14733;DHT22;7457;50.960;6.830;2024-03-23T12:00:39;9.00;89.70
14733;DHT22;7457;50.960;6.830;2024-03-23T12:03:05;8.80;89.60
14733;DHT22;7457;50.960;6.830;2024-03-23T12:05:32;8.60;89.70
14733;DHT22;7457;50.960;6.830;2024-03-23T12:11:15;8.40;91.50
14733;DHT22;7457;50.960;6.830;2024-03-23T12:13:41;9.00;95.00
14733;DHT22;7457;50.960;6.830;2024-03-23T12:16:26;10.10;94.10
14733;DHT22;7457;50.960;6.830;2024-03-23T12:18:53;10.50;87.60
14733;DHT22;7457;50.960;6.830;2024-03-23T12:21:19;10.10;84.60
14733;DHT22;7457;50.960;6.830;2024-03-23T12:23:45;9.50;86.90
14733;DHT22;7457;50.960;6.830;2024-03-23T12:26:12;9.40;88.80
14733;DHT22;7457;50.960;6.830;2024-03-23T12:28:38;9.60;91.70
14733;DHT22;7457;50.960;6.830;2024-03-23T12:31:04;9.80;90.40
14733;DHT22;7457;50.960;6.830;2024-03-23T12:33:31;9.50;89.90
14733;DHT22;7457;50.960;6.830;2024-03-23T12:35:56;9.00;91.00
14733;DHT22;7457;50.960;6.830;2024-03-23T12:38:22;8.40;91.60
14733;DHT22;7457;50.960;6.830;2024-03-23T12:40:48;7.80;93.40
14733;DHT22;7457;50.960;6.830;2024-03-23T12:43:15;7.60;96.20
14733;DHT22;7457;50.960;6.830;2024-03-23T12:45:40;7.50;95.80
14733;DHT22;7457;50.960;6.830;2024-03-23T12:48:07;7.50;96.60
14733;DHT22;7457;50.960;6.830;2024-03-23T12:50:32;7.70;96.00
14733;DHT22;7457;50.960;6.830;2024-03-23T12:52:59;7.90;97.30
14733;DHT22;7457;50.960;6.830;2024-03-23T12:55:24;8.30;96.60
14733;DHT22;7457;50.960;6.830;2024-03-23T12:57:50;8.70;95.70
14733;DHT22;7457;50.960;6.830;2024-03-23T13:00:16;8.90;94.00
14733;DHT22;7457;50.960;6.830;2024-03-23T13:02:42;9.20;93.20
14733;DHT22;7457;50.960;6.830;2024-03-23T13:05:08;9.60;93.70
14733;DHT22;7457;50.960;6.830;2024-03-23T13:07:34;9.90;92.90
14733;DHT22;7457;50.960;6.830;2024-03-23T13:10:01;10.10;90.30
14733;DHT22;7457;50.960;6.830;2024-03-23T13:12:27;10.10;90.00
14733;DHT22;7457;50.960;6.830;2024-03-23T13:14:53;10.10;90.00
14733;DHT22;7457;50.960;6.830;2024-03-23T13:17:19;10.10;88.80
14733;DHT22;7457;50.960;6.830;2024-03-23T13:19:44;10.10;88.00
14733;DHT22;7457;50.960;6.830;2024-03-23T13:22:10;10.10;89.20
14733;DHT22;7457;50.960;6.830;2024-03-23T13:24:37;10.30;90.10
14733;DHT22;7457;50.960;6.830;2024-03-23T13:27:03;10.40;89.30
14733;DHT22;7457;50.960;6.830;2024-03-23T13:29:33;10.50;89.30
14733;DHT22;7457;50.960;6.830;2024-03-23T13:32:08;10.70;89.80
14733;DHT22;7457;50.960;6.830;2024-03-23T13:34:34;11.00;89.20
14733;DHT22;7457;50.960;6.830;2024-03-23T13:37:00;11.20;88.80
14733;DHT22;7457;50.960;6.830;2024-03-23T13:39:26;11.40;87.10
14733;DHT22;7457;50.960;6.830;2024-03-23T13:41:55;11.50;85.30
14733;DHT22;7457;50.960;6.830;2024-03-23T13:44:23;11.60;83.40
14733;DHT22;7457;50.960;6.830;2024-03-23T13:46:49;11.40;81.10
14733;DHT22;7457;50.960;6.830;2024-03-23T13:51:54;10.40;78.30
14733;DHT22;7457;50.960;6.830;2024-03-23T13:54:21;9.90;78.20
14733;DHT22;7457;50.960;6.830;2024-03-23T13:56:54;9.40;78.90
14733;DHT22;7457;50.960;6.830;2024-03-23T13:59:20;9.00;80.70
14733;DHT22;7457;50.960;6.830;2024-03-23T14:01:49;8.70;82.40
14733;DHT22;7457;50.960;6.830;2024-03-23T14:04:15;8.40;83.60
14733;DHT22;7457;50.960;6.830;2024-03-23T14:06:45;8.20;84.40
14733;DHT22;7457;50.960;6.830;2024-03-23T14:09:14;8.10;85.90
14733;DHT22;7457;50.960;6.830;2024-03-23T14:11:46;8.10;86.80
14733;DHT22;7457;50.960;6.830;2024-03-23T14:14:11;8.20;87.50
14733;DHT22;7457;50.960;6.830;2024-03-23T14:16:37;8.30;87.70
14733;DHT22;7457;50.960;6.830;2024-03-23T14:19:03;8.50;86.60
14733;DHT22;7457;50.960;6.830;2024-03-23T14:21:31;8.60;86.60
14733;DHT22;7457;50.960;6.830;2024-03-23T14:23:56;8.70;86.30
14733;DHT22;7457;50.960;6.830;2024-03-23T14:26:22;8.90;86.50
14733;DHT22;7457;50.960;6.830;2024-03-23T14:28:49;9.10;86.50
14733;DHT22;7457;50.960;6.830;2024-03-23T14:31:15;9.30;85.90
14733;DHT22;7457;50.960;6.830;2024-03-23T14:33:41;9.40;84.90
14733;DHT22;7457;50.960;6.830;2024-03-23T14:36:15;9.50;84.10
14733;DHT22;7457;50.960;6.830;2024-03-23T14:38:42;9.50;83.30
14733;DHT22;7457;50.960;6.830;2024-03-23T14:41:07;9.40;81.90
14733;DHT22;7457;50.960;6.830;2024-03-23T14:43:33;9.10;81.60
14733;DHT22;7457;50.960;6.830;2024-03-23T14:46:15;8.80;83.30
14733;DHT22;7457;50.960;6.830;2024-03-23T14:48:43;8.30;86.10
14733;DHT22;7457;50.960;6.830;2024-03-23T14:51:10;7.90;86.60
14733;DHT22;7457;50.960;6.830;2024-03-23T14:53:40;7.50;87.30
14733;DHT22;7457;50.960;6.830;2024-03-23T14:56:07;7.10;87.60
14733;DHT22;7457;50.960;6.830;2024-03-23T14:58:33;6.70;88.80
14733;DHT22;7457;50.960;6.830;2024-03-23T15:01:09;6.40;90.80
14733;DHT22;7457;50.960;6.830;2024-03-23T15:03:39;6.20;92.40
14733;DHT22;7457;50.960;6.830;2024-03-23T15:06:05;6.00;93.60
14733;DHT22;7457;50.960;6.830;2024-03-23T15:08:31;5.80;96.00
14733;DHT22;7457;50.960;6.830;2024-03-23T15:11:01;5.70;97.40
14733;DHT22;7457;50.960;6.830;2024-03-23T15:13:32;5.70;100.00
14733;DHT22;7457;50.960;6.830;2024-03-23T15:18:24;6.20;100.00
14733;DHT22;7457;50.960;6.830;2024-03-23T15:20:55;6.50;100.00
14733;DHT22;7457;50.960;6.830;2024-03-23T15:23:21;6.60;100.00
14733;DHT22;7457;50.960;6.830;2024-03-23T15:25:56;6.70;99.00
14733;DHT22;7457;50.960;6.830;2024-03-23T15:28:23;6.70;99.50
14733;DHT22;7457;50.960;6.830;2024-03-23T15:30:49;6.70;100.00
14733;DHT22;7457;50.960;6.830;2024-03-23T15:33:15;6.90;100.00
14733;DHT22;7457;50.960;6.830;2024-03-23T15:35:41;7.00;100.00
14733;DHT22;7457;50.960;6.830;2024-03-23T15:38:07;7.20;100.00
14733;DHT22;7457;50.960;6.830;2024-03-23T15:40:33;7.30;100.00
14733;DHT22;7457;50.960;6.830;2024-03-23T15:42:59;7.40;100.00
14733;DHT22;7457;50.960;6.830;2024-03-23T15:45:26;7.30;100.00
14733;DHT22;7457;50.960;6.830;2024-03-23T15:47:52;7.30;98.90
14733;DHT22;7457;50.960;6.830;2024-03-23T15:50:17;7.10;98.50
14733;DHT22;7457;50.960;6.830;2024-03-23T15:52:43;6.90;98.50
14733;DHT22;7457;50.960;6.830;2024-03-23T15:55:09;6.80;99.00
14733;DHT22;7457;50.960;6.830;2024-03-23T15:57:36;6.60;100.00
14733;DHT22;7457;50.960;6.830;2024-03-23T16:00:02;6.50;100.00
14733;DHT22;7457;50.960;6.830;2024-03-23T16:02:37;6.50;100.00
14733;DHT22;7457;50.960;6.830;2024-03-23T16:05:03;6.60;100.00
14733;DHT22;7457;50.960;6.830;2024-03-23T16:07:29;6.60;100.00
14733;DHT22;7457;50.960;6.830;2024-03-23T16:09:55;6.60;100.00
14733;DHT22;7457;50.960;6.830;2024-03-23T16:12:22;6.60;100.00
14733;DHT22;7457;50.960;6.830;2024-03-23T16:14:47;6.50;100.00
14733;DHT22;7457;50.960;6.830;2024-03-23T16:17:13;6.40;100.00
14733;DHT22;7457;50.960;6.830;2024-03-23T16:19:39;6.30;100.00
14733;DHT22;7457;50.960;6.830;2024-03-23T16:22:04;6.30;100.00
14733;DHT22;7457;50.960;6.830;2024-03-23T16:24:30;6.30;100.00
14733;DHT22;7457;50.960;6.830;2024-03-23T16:26:56;6.30;100.00
14733;DHT22;7457;50.960;6.830;2024-03-23T16:29:22;6.40;100.00
14733;DHT22;7457;50.960;6.830;2024-03-23T16:31:47;6.50;100.00
14733;DHT22;7457;50.960;6.830;2024-03-23T16:34:13;6.50;100.00
14733;DHT22;7457;50.960;6.830;2024-03-23T16:36:39;6.50;100.00
14733;DHT22;7457;50.960;6.830;2024-03-23T16:39:04;6.50;100.00
14733;DHT22;7457;50.960;6.830;2024-03-23T16:41:30;6.40;100.00
14733;DHT22;7457;50.960;6.830;2024-03-23T16:43:56;6.30;100.00
14733;DHT22;7457;50.960;6.830;2024-03-23T16:46:22;6.20;100.00
14733;DHT22;7457;50.960;6.830;2024-03-23T16:48:48;6.10;100.00
14733;DHT22;7457;50.960;6.830;2024-03-23T16:51:13;6.10;100.00
14733;DHT22;7457;50.960;6.830;2024-03-23T16:53:39;6.00;100.00
14733;DHT22;7457;50.960;6.830;2024-03-23T16:56:07;6.00;100.00
14733;DHT22;7457;50.960;6.830;2024-03-23T16:58:35;5.90;100.00
14733;DHT22;7457;50.960;6.830;2024-03-23T17:03:30;5.80;100.00
14733;DHT22;7457;50.960;6.830;2024-03-23T17:05:56;5.80;100.00